Time;durP1;ratioP1;P1;durP2;ratioP2;P2;SDS_P1;SDS_P2;PMS_P1;PMS_P2;Temp;Humidity;BMP_temperature;BMP_pressure;BME280_temperature;BME280_humidity;BME280_pressure;Samples;Min_cycle;Max_cycle;Signal;HPM_P1;HPM_P2
2021/03/26 00:01:52;;;;;;;14.97;11.20;;;7.20;92.40;14.70;99981.00;;;;5030748;28;20198;-68
2021/03/26 00:04:18;;;;;;;12.50;10.18;;;7.10;92.30;14.70;99980.00;;;;5029466;28;20799;-68
2021/03/26 00:06:47;;;;;;;13.98;10.93;;;7.20;92.30;14.60;99976.00;;;;5032407;28;20252;-67
2021/03/26 00:09:24;;;;;;;14.70;11.30;;;7.20;92.30;14.70;99969.00;;;;5030092;28;20263;-68
2021/03/26 00:11:50;;;;;;;13.15;11.00;;;7.20;92.30;14.60;99975.00;;;;5013111;28;20214;-69
2021/03/26 00:14:17;;;;;;;13.30;10.82;;;7.10;92.30;14.60;99980.00;;;;5030199;28;20252;-68
2021/03/26 00:16:43;;;;;;;13.32;10.95;;;7.10;92.30;14.60;99977.00;;;;5030212;28;20195;-68
2021/03/26 00:19:08;;;;;;;15.10;11.70;;;7.10;92.30;14.60;99981.00;;;;5029542;28;20676;-68
2021/03/26 00:21:34;;;;;;;14.67;11.13;;;7.10;92.30;14.50;99968.00;;;;5030449;28;20241;-69
2021/03/26 00:24:00;;;;;;;13.63;10.97;;;7.10;92.30;14.60;99980.00;;;;5030151;28;20556;-69
2021/03/26 00:26:26;;;;;;;14.80;10.73;;;7.10;92.30;14.80;99961.00;;;;5013065;28;20245;-69
2021/03/26 00:28:52;;;;;;;13.70;11.10;;;7.10;92.30;14.70;99968.00;;;;5029917;28;20546;-69
2021/03/26 00:31:18;;;;;;;14.73;10.97;;;7.10;92.30;14.60;99976.00;;;;5030493;28;20460;-68
2021/03/26 00:33:44;;;;;;;14.10;11.77;;;7.10;92.30;14.50;99970.00;;;;5050787;28;20502;-68
2021/03/26 00:36:10;;;;;;;15.60;11.65;;;7.10;92.30;14.30;99969.00;;;;5016552;28;20707;-68
2021/03/26 00:38:35;;;;;;;14.90;11.27;;;7.10;92.30;14.70;99978.00;;;;5016998;28;20229;-68
2021/03/26 00:41:02;;;;;;;13.90;11.17;;;7.10;92.20;14.50;99965.00;;;;4983432;28;20438;-68
2021/03/26 00:43:28;;;;;;;14.88;11.55;;;7.10;92.30;14.50;99956.00;;;;4984419;28;20178;-68
2021/03/26 00:45:53;;;;;;;15.87;11.43;;;7.10;92.30;14.60;99983.00;;;;5015371;28;20205;-68
2021/03/26 00:48:20;;;;;;;15.40;10.73;;;7.10;92.30;14.60;99979.00;;;;5011667;28;20490;-68
2021/03/26 00:50:49;;;;;;;14.65;11.50;;;7.10;92.20;14.70;99984.00;;;;5035841;28;20258;-68
2021/03/26 00:53:25;;;;;;;14.35;12.23;;;7.10;92.30;14.70;99991.00;;;;5036053;28;20307;-68
2021/03/26 00:55:51;;;;;;;15.50;11.75;;;7.10;92.20;14.50;99977.00;;;;5036187;28;20240;-68
2021/03/26 00:58:17;;;;;;;13.80;11.70;;;7.10;92.30;14.50;99988.00;;;;5036043;28;20208;-68
2021/03/26 01:00:43;;;;;;;17.05;12.50;;;7.10;92.20;14.50;99979.00;;;;5051173;28;20456;-68
2021/03/26 01:03:09;;;;;;;15.77;12.55;;;7.10;92.20;14.50;99983.00;;;;5036799;28;20665;-68
2021/03/26 01:05:38;;;;;;;15.15;11.73;;;7.10;92.20;14.50;99978.00;;;;5035406;28;20212;-68
2021/03/26 01:08:04;;;;;;;15.25;12.48;;;7.10;92.30;14.60;99982.00;;;;5035813;28;20181;-68
2021/03/26 01:10:35;;;;;;;19.10;13.70;;;7.10;92.30;14.60;99984.00;;;;5035926;28;20196;-68
2021/03/26 01:13:01;;;;;;;14.50;11.65;;;7.10;92.20;14.60;99974.00;;;;5037206;28;20238;-68
2021/03/26 01:15:28;;;;;;;17.33;11.90;;;7.10;92.30;14.60;99976.00;;;;5034947;28;20212;-68
2021/03/26 01:17:58;;;;;;;15.65;12.10;;;7.10;92.30;14.60;99979.00;;;;5020165;28;20422;-68
2021/03/26 01:20:28;;;;;;;15.27;11.82;;;7.10;92.20;14.70;99984.00;;;;5035597;28;20723;-68
2021/03/26 01:22:54;;;;;;;17.05;12.13;;;7.10;92.20;14.60;99976.00;;;;5035463;28;20177;-68
2021/03/26 01:25:31;;;;;;;15.00;12.60;;;7.10;92.20;14.60;99980.00;;;;5035640;28;20319;-68
2021/03/26 01:27:56;;;;;;;16.45;12.57;;;7.00;92.20;14.30;99995.00;;;;5036986;28;20606;-68
2021/03/26 01:30:23;;;;;;;17.10;13.50;;;7.10;92.30;14.70;99988.00;;;;5035186;28;20228;-68
2021/03/26 01:32:49;;;;;;;15.77;12.27;;;7.10;92.30;14.30;99985.00;;;;5019384;28;20699;-69
2021/03/26 01:35:15;;;;;;;16.10;12.68;;;7.00;92.20;14.50;99975.00;;;;5018434;28;20216;-70
2021/03/26 01:37:41;;;;;;;15.93;12.80;;;7.10;92.20;14.60;99982.00;;;;5019378;28;20177;-69
2021/03/26 01:40:09;;;;;;;16.40;12.40;;;7.00;92.20;14.50;99978.00;;;;5052245;28;20177;-69
2021/03/26 01:42:36;;;;;;;16.50;13.07;;;7.00;92.20;14.60;99982.00;;;;5035450;28;20209;-69
2021/03/26 01:45:09;;;;;;;16.42;12.65;;;7.00;92.20;14.60;99979.00;;;;5035560;28;20181;-69
2021/03/26 01:47:34;;;;;;;16.73;13.25;;;7.00;92.20;14.50;99993.00;;;;5036903;28;20205;-69
2021/03/26 01:50:00;;;;;;;16.10;13.40;;;7.00;92.20;14.50;99936.00;;;;5035151;28;20192;-69
2021/03/26 01:52:26;;;;;;;17.00;13.30;;;7.00;92.20;14.60;99985.00;;;;5051854;28;20197;-68
2021/03/26 01:54:52;;;;;;;16.80;13.90;;;7.00;92.20;14.50;99982.00;;;;5035447;28;20762;-68
2021/03/26 01:57:18;;;;;;;16.10;13.00;;;7.00;92.20;14.70;99987.00;;;;5069516;28;20201;-68
2021/03/26 01:59:44;;;;;;;16.47;12.70;;;7.00;92.20;14.50;99996.00;;;;5051765;28;20184;-68
2021/03/26 02:02:14;;;;;;;18.48;14.40;;;7.00;92.20;14.40;99989.00;;;;5051772;28;20251;-68
2021/03/26 02:04:45;;;;;;;16.77;13.57;;;7.00;92.20;14.60;99986.00;;;;5035307;28;20181;-70
2021/03/26 02:07:12;;;;;;;16.27;13.02;;;7.00;92.20;14.50;99998.00;;;;5019308;28;20244;-69
2021/03/26 02:09:40;;;;;;;15.73;12.88;;;7.00;92.20;14.70;99988.00;;;;5035322;28;20272;-69
2021/03/26 02:12:22;;;;;;;15.18;13.20;;;7.00;92.20;14.50;99996.00;;;;5018584;28;20204;-70
2021/03/26 02:14:56;;;;;;;17.45;13.18;;;7.00;92.20;14.50;99998.00;;;;5035531;28;20213;-69
2021/03/26 02:17:28;;;;;;;17.63;14.50;;;7.00;92.20;14.60;100002.00;;;;5035437;28;20197;-69
2021/03/26 02:20:32;;;;;;;18.20;14.50;;;7.00;92.20;14.50;99990.00;;;;5020261;28;20190;-69
2021/03/26 02:23:08;;;;;;;16.17;12.95;;;7.00;92.20;14.60;99996.00;;;;5053270;28;20185;-69
2021/03/26 02:25:33;;;;;;;22.10;15.38;;;7.00;92.20;14.40;100001.00;;;;5034983;28;20254;-68
2021/03/26 02:27:59;;;;;;;17.17;13.43;;;7.00;92.20;14.60;100004.00;;;;5069965;28;20173;-68
2021/03/26 02:30:34;;;;;;;19.53;15.10;;;7.00;92.20;14.50;99986.00;;;;5069142;28;20186;-68
2021/03/26 02:33:00;;;;;;;17.95;14.55;;;7.00;92.20;14.40;99985.00;;;;5034665;28;20235;-68
2021/03/26 02:35:29;;;;;;;17.50;14.07;;;7.00;92.20;14.50;100001.00;;;;5036674;28;20213;-68
2021/03/26 02:38:16;;;;;;;17.90;14.45;;;7.00;92.20;14.60;100007.00;;;;5055536;28;20185;-69
2021/03/26 02:40:52;;;;;;;17.98;14.55;;;7.00;92.20;14.60;100000.00;;;;5023226;28;20197;-68
2021/03/26 02:43:49;;;;;;;18.90;14.60;;;7.00;92.20;14.50;100005.00;;;;5040557;28;20174;-68
2021/03/26 02:46:25;;;;;;;17.90;15.23;;;7.00;92.20;14.60;100000.00;;;;5041633;28;20205;-68
2021/03/26 02:49:43;;;;;;;18.58;15.48;;;7.00;92.20;14.20;99991.00;;;;5056660;28;20181;-69
2021/03/26 02:52:32;;;;;;;17.95;14.30;;;7.00;92.20;14.30;100013.00;;;;5055107;28;20213;-68
2021/03/26 02:55:26;;;;;;;21.02;15.52;;;7.00;92.20;14.50;100008.00;;;;5042327;28;20212;-69
2021/03/26 02:57:59;;;;;;;16.35;14.02;;;6.90;92.10;14.30;100007.00;;;;5058317;28;20339;-70
2021/03/26 03:00:37;;;;;;;19.73;14.85;;;7.00;92.20;14.50;100002.00;;;;5037928;28;20548;-69
2021/03/26 03:03:03;;;;;;;19.08;15.10;;;7.00;92.20;14.60;99995.00;;;;5055256;28;20200;-70
2021/03/26 03:05:40;;;;;;;18.35;15.30;;;7.00;92.20;14.50;100007.00;;;;5021937;28;20192;-69
2021/03/26 03:08:21;;;;;;;19.58;15.77;;;7.00;92.20;14.40;100002.00;;;;5038864;28;20189;-68
2021/03/26 03:10:52;;;;;;;20.65;16.08;;;7.00;92.20;14.50;99999.00;;;;5022831;28;20240;-68
2021/03/26 03:13:37;;;;;;;17.95;15.43;;;7.00;92.20;14.50;99997.00;;;;5054815;28;20177;-68
2021/03/26 03:16:28;;;;;;;18.67;15.10;;;7.00;92.20;14.40;100012.00;;;;5037976;28;20583;-70
2021/03/26 03:19:00;;;;;;;19.75;15.90;;;6.90;92.50;14.50;100015.00;;;;5040262;28;20670;-70
2021/03/26 03:21:48;;;;;;;19.90;16.38;;;6.90;92.10;14.30;100021.00;;;;5037768;28;20271;-69
2021/03/26 03:24:18;;;;;;;18.85;15.38;;;6.90;92.10;14.50;100018.00;;;;5038576;28;20185;-69
2021/03/26 03:27:02;;;;;;;18.88;15.02;;;6.90;92.10;14.50;100019.00;;;;5022687;28;20698;-69
2021/03/26 03:29:38;;;;;;;20.13;17.00;;;6.90;92.10;14.60;100022.00;;;;5072384;28;20189;-69
2021/03/26 03:32:41;;;;;;;20.13;17.13;;;6.90;92.10;14.50;100026.00;;;;5038344;28;20252;-68
2021/03/26 03:35:21;;;;;;;22.83;17.30;;;6.90;92.10;14.40;100026.00;;;;5039216;28;20219;-69
2021/03/26 03:38:11;;;;;;;20.25;16.27;;;6.90;92.10;14.40;100031.00;;;;5054229;28;20173;-68
2021/03/26 03:40:46;;;;;;;19.90;15.80;;;6.90;92.10;14.40;100022.00;;;;5037746;28;20727;-69
2021/03/26 03:43:22;;;;;;;22.48;17.05;;;6.90;92.10;14.30;100021.00;;;;5071330;28;20226;-68
2021/03/26 03:46:19;;;;;;;20.30;15.85;;;6.90;92.10;14.40;100022.00;;;;5020559;28;20746;-68
2021/03/26 03:48:57;;;;;;;20.67;15.55;;;6.90;92.10;14.50;100021.00;;;;5025507;28;20181;-68
2021/03/26 03:51:32;;;;;;;20.63;16.75;;;6.90;92.10;14.50;100011.00;;;;5022406;28;20479;-68
2021/03/26 03:54:28;;;;;;;19.60;16.20;;;6.90;92.10;14.50;100029.00;;;;5038320;28;20342;-68
2021/03/26 03:57:27;;;;;;;21.40;16.17;;;6.90;92.10;14.50;100028.00;;;;5052637;28;20710;-68
2021/03/26 04:00:30;;;;;;;19.58;16.52;;;6.90;92.10;14.50;100025.00;;;;5039299;28;20177;-67
2021/03/26 04:03:10;;;;;;;21.13;16.73;;;6.90;92.10;14.40;100027.00;;;;5021246;28;20189;-67
2021/03/26 04:05:41;;;;;;;20.63;16.30;;;6.90;92.10;14.50;100033.00;;;;5054770;28;20208;-66
2021/03/26 04:08:13;;;;;;;22.20;17.55;;;6.90;92.10;14.50;100031.00;;;;5037587;28;20175;-67
2021/03/26 04:10:40;;;;;;;21.58;17.55;;;6.90;92.10;14.60;100011.00;;;;5036807;28;20201;-68
2021/03/26 04:13:11;;;;;;;23.15;17.90;;;6.90;92.10;14.40;100036.00;;;;5020862;28;20549;-68
2021/03/26 04:15:43;;;;;;;23.40;18.02;;;6.90;92.10;14.40;100040.00;;;;5037710;28;20208;-68
2021/03/26 04:18:23;;;;;;;22.00;17.52;;;6.90;92.10;14.40;100032.00;;;;5019893;28;20372;-68
2021/03/26 04:21:04;;;;;;;21.73;17.70;;;6.90;92.10;14.40;100039.00;;;;5054118;28;20283;-66
2021/03/26 04:23:34;;;;;;;24.13;18.02;;;6.90;92.10;14.40;100036.00;;;;5071597;28;20264;-70
2021/03/26 04:26:14;;;;;;;23.20;18.42;;;6.90;92.10;14.30;100030.00;;;;5036996;28;20710;-69
2021/03/26 04:28:47;;;;;;;23.15;17.83;;;6.90;92.10;14.40;100033.00;;;;5038647;28;20715;-69
2021/03/26 04:31:18;;;;;;;25.35;19.48;;;6.90;92.10;14.30;100042.00;;;;5036756;28;20235;-69
2021/03/26 04:33:44;;;;;;;23.20;18.05;;;6.80;92.00;14.30;100039.00;;;;5037280;28;20651;-69
2021/03/26 04:36:09;;;;;;;23.33;18.40;;;6.80;92.00;14.40;100030.00;;;;5053351;28;20240;-69
2021/03/26 04:38:45;;;;;;;25.17;19.63;;;6.80;92.00;14.30;100033.00;;;;5019858;28;20640;-68
2021/03/26 04:41:22;;;;;;;21.25;17.85;;;6.80;92.00;14.20;100038.00;;;;5021676;28;20564;-69
2021/03/26 04:43:54;;;;;;;24.98;19.65;;;6.80;92.00;14.30;100042.00;;;;5038419;28;20173;-69
2021/03/26 04:46:39;;;;;;;23.40;18.63;;;6.80;92.00;14.20;100033.00;;;;5020031;28;20282;-69
2021/03/26 04:49:14;;;;;;;27.83;19.50;;;6.80;92.00;14.10;100040.00;;;;5037115;28;20189;-68
2021/03/26 04:51:47;;;;;;;26.20;18.85;;;6.80;92.00;14.40;100039.00;;;;5036959;28;20294;-68
2021/03/26 04:54:46;;;;;;;22.80;18.45;;;6.80;92.00;14.30;100044.00;;;;5036566;28;20188;-68
2021/03/26 04:57:41;;;;;;;22.17;17.00;;;6.80;92.00;14.10;100044.00;;;;5052619;28;20456;-68
2021/03/26 05:00:18;;;;;;;24.13;18.95;;;6.80;92.00;14.30;100048.00;;;;5048246;28;20193;-68
2021/03/26 05:03:07;;;;;;;22.38;17.90;;;6.80;92.00;14.10;100041.00;;;;5019468;28;20193;-68
2021/03/26 05:05:36;;;;;;;23.00;17.50;;;6.80;92.00;14.30;100054.00;;;;5039575;28;20190;-68
2021/03/26 05:08:04;;;;;;;25.10;18.52;;;6.80;92.00;14.30;100032.00;;;;5035969;28;20189;-68
2021/03/26 05:10:30;;;;;;;23.98;19.17;;;6.80;92.00;14.20;100038.00;;;;5036939;28;20177;-69
2021/03/26 05:13:08;;;;;;;21.93;17.43;;;6.80;92.00;14.20;100051.00;;;;5019267;28;20609;-69
2021/03/26 05:15:53;;;;;;;23.88;18.20;;;6.80;92.00;14.30;100047.00;;;;5035984;28;20245;-68
2021/03/26 05:18:45;;;;;;;23.60;18.73;;;6.80;92.00;14.20;100053.00;;;;5037470;28;20177;-68
2021/03/26 05:21:16;;;;;;;22.05;17.98;;;6.80;92.00;14.30;100062.00;;;;5036687;28;20459;-68
2021/03/26 05:24:12;;;;;;;23.65;17.95;;;6.80;92.00;14.20;100058.00;;;;5052958;28;20209;-68
2021/03/26 05:26:38;;;;;;;24.27;18.88;;;6.80;92.00;14.30;100061.00;;;;5034075;28;20644;-68
2021/03/26 05:29:04;;;;;;;22.50;17.33;;;6.80;92.00;14.30;100068.00;;;;5051714;28;20184;-68
2021/03/26 05:32:06;;;;;;;23.07;18.20;;;6.80;92.00;14.30;100080.00;;;;5019369;28;20213;-67
2021/03/26 05:34:57;;;;;;;24.38;17.83;;;6.80;92.00;14.30;100077.00;;;;5047997;28;20306;-68
2021/03/26 05:37:42;;;;;;;20.33;16.80;;;6.80;92.00;14.20;100074.00;;;;5038163;28;20236;-68
2021/03/26 05:40:44;;;;;;;23.00;18.08;;;6.80;92.00;14.40;100079.00;;;;5035810;28;20420;-68
2021/03/26 05:43:38;;;;;;;23.90;17.98;;;6.80;92.00;14.40;100074.00;;;;5069096;28;20547;-68
2021/03/26 05:46:41;;;;;;;26.35;19.05;;;6.80;92.00;14.40;100079.00;;;;5056570;28;20208;-68
2021/03/26 05:49:34;;;;;;;22.60;17.42;;;6.80;92.00;14.40;100079.00;;;;5052612;28;20243;-68
2021/03/26 05:52:14;;;;;;;23.92;18.58;;;6.80;92.00;14.50;100082.00;;;;5052360;28;20243;-68
2021/03/26 05:55:34;;;;;;;23.10;18.40;;;6.80;92.00;14.40;100088.00;;;;5051950;28;20200;-68
2021/03/26 05:58:33;;;;;;;24.88;18.30;;;6.80;92.00;14.20;100082.00;;;;5044052;28;20292;-68
2021/03/26 06:01:08;;;;;;;22.52;18.48;;;6.80;92.00;13.90;100082.00;;;;5070267;28;20280;-68
2021/03/26 06:03:58;;;;;;;23.55;17.95;;;6.80;92.00;14.10;100080.00;;;;5035201;28;20187;-68
2021/03/26 06:07:04;;;;;;;26.70;20.10;;;6.80;92.00;14.10;100086.00;;;;5070001;28;20465;-68
2021/03/26 06:09:47;;;;;;;23.77;18.58;;;6.80;92.00;14.10;100092.00;;;;5068410;28;20215;-68
2021/03/26 06:12:38;;;;;;;27.88;20.08;;;6.80;92.00;14.10;100085.00;;;;5052328;28;20204;-68
2021/03/26 06:15:44;;;;;;;23.35;18.17;;;6.80;92.00;14.10;100089.00;;;;5051728;28;20386;-68
2021/03/26 06:18:38;;;;;;;24.90;17.90;;;6.80;92.00;14.10;100088.00;;;;5037370;28;20237;-68
2021/03/26 06:21:23;;;;;;;22.60;18.35;;;6.80;92.00;14.00;100099.00;;;;5051956;28;20223;-66
2021/03/26 06:24:24;;;;;;;26.23;19.65;;;6.80;92.00;14.00;100099.00;;;;5052960;28;20173;-68
2021/03/26 06:27:24;;;;;;;24.08;19.08;;;6.80;92.00;13.90;100091.00;;;;5038488;28;20201;-67
2021/03/26 06:30:17;;;;;;;22.90;18.45;;;6.80;92.30;14.00;100098.00;;;;5051400;28;20261;-68
2021/03/26 06:33:23;;;;;;;22.70;17.70;;;6.80;92.00;13.90;100094.00;;;;5036949;28;20698;-68
2021/03/26 06:36:07;;;;;;;25.25;19.08;;;6.80;92.00;13.80;100099.00;;;;5051608;28;20583;-68
2021/03/26 06:39:16;;;;;;;21.92;18.48;;;6.80;92.00;13.60;100098.00;;;;5068705;28;20659;-68
2021/03/26 06:42:10;;;;;;;24.17;18.58;;;6.80;91.90;13.80;100103.00;;;;5069742;28;20228;-68
2021/03/26 06:44:56;;;;;;;22.27;17.13;;;6.80;91.90;13.90;100107.00;;;;5036952;28;20272;-68
2021/03/26 06:48:02;;;;;;;23.70;18.73;;;6.80;91.90;13.90;100106.00;;;;5036593;28;20291;-68
2021/03/26 06:50:56;;;;;;;24.02;18.70;;;6.80;91.90;13.80;100115.00;;;;5040462;28;20191;-68
2021/03/26 06:53:45;;;;;;;23.48;19.38;;;6.80;92.00;13.90;100116.00;;;;5052492;28;20212;-68
2021/03/26 06:57:04;;;;;;;21.38;19.10;;;6.80;92.00;13.80;100106.00;;;;5037226;28;20614;-68
2021/03/26 06:59:59;;;;;;;25.63;19.83;;;6.80;92.00;13.80;100100.00;;;;5035755;28;20189;-68
2021/03/26 07:02:50;;;;;;;26.90;19.67;;;6.80;91.90;13.90;100111.00;;;;5035292;28;20710;-68
2021/03/26 07:05:57;;;;;;;23.63;18.85;;;6.80;91.90;13.90;100113.00;;;;5034700;28;20200;-68
2021/03/26 07:09:00;;;;;;;25.83;18.80;;;6.80;91.90;14.00;100115.00;;;;5055257;28;20193;-68
2021/03/26 07:12:03;;;;;;;27.98;22.13;;;6.80;91.90;13.90;100112.00;;;;5068887;28;20280;-68
2021/03/26 07:14:56;;;;;;;28.25;21.50;;;6.80;91.90;14.00;100113.00;;;;5053204;28;20704;-68
2021/03/26 07:17:50;;;;;;;25.58;20.67;;;6.80;92.00;14.00;100104.00;;;;5051059;28;20201;-68
2021/03/26 07:21:02;;;;;;;23.75;19.17;;;6.80;92.00;14.00;100119.00;;;;5033858;28;20272;-68
2021/03/26 07:24:03;;;;;;;29.05;20.58;;;6.80;92.00;14.00;100115.00;;;;5072495;28;20192;-68
2021/03/26 07:26:40;;;;;;;27.55;20.23;;;6.80;92.00;14.10;100111.00;;;;5040109;28;20293;-68
2021/03/26 07:29:53;;;;;;;23.05;18.75;;;6.80;92.00;14.00;100114.00;;;;5021989;28;20652;-68
2021/03/26 07:32:28;;;;;;;22.75;18.70;;;6.80;92.00;14.10;100116.00;;;;5060286;28;20233;-69
2021/03/26 07:35:31;;;;;;;23.83;19.70;;;6.80;92.00;14.00;100124.00;;;;5054104;28;20208;-68
2021/03/26 07:38:18;;;;;;;23.30;18.42;;;6.80;92.00;14.10;100126.00;;;;5054379;28;20189;-68
2021/03/26 07:41:20;;;;;;;22.25;17.80;;;6.80;92.00;14.00;100117.00;;;;5071684;28;20263;-68
2021/03/26 07:44:13;;;;;;;22.05;18.13;;;6.80;91.90;13.90;100122.00;;;;5028476;28;20212;-69
2021/03/26 07:47:18;;;;;;;23.92;18.80;;;6.80;91.90;14.00;100121.00;;;;5057386;28;20225;-68
2021/03/26 07:50:16;;;;;;;26.73;20.20;;;6.80;91.90;14.00;100122.00;;;;5055835;28;20209;-68
2021/03/26 07:53:15;;;;;;;24.85;19.65;;;6.80;91.90;14.20;100125.00;;;;5038093;28;20185;-68
2021/03/26 07:55:51;;;;;;;24.92;19.73;;;6.80;91.90;14.10;100129.00;;;;5071464;28;20243;-68
2021/03/26 07:58:40;;;;;;;27.30;19.30;;;6.80;91.90;14.20;100121.00;;;;5055349;28;20179;-68
2021/03/26 08:01:40;;;;;;;23.55;19.13;;;6.80;91.90;14.30;100138.00;;;;5071591;28;20194;-68
2021/03/26 08:04:08;;;;;;;22.27;19.10;;;6.80;91.90;14.30;100136.00;;;;5053782;28;20177;-68
2021/03/26 08:07:12;;;;;;;21.45;18.40;;;6.80;91.90;14.20;100135.00;;;;5072111;28;20323;-68
2021/03/26 08:10:27;;;;;;;25.15;19.75;;;6.80;91.90;14.00;100133.00;;;;5053230;28;20242;-68
2021/03/26 08:13:20;;;;;;;24.27;17.90;;;6.80;91.90;14.10;100135.00;;;;5053839;28;20272;-68
2021/03/26 08:16:12;;;;;;;22.88;17.40;;;6.80;91.90;14.00;100137.00;;;;5051896;28;20622;-68
2021/03/26 08:18:53;;;;;;;23.08;18.27;;;6.80;91.90;13.90;100138.00;;;;5030230;28;20200;-68
2021/03/26 08:21:37;;;;;;;26.33;19.02;;;6.80;91.90;13.90;100136.00;;;;5051285;28;20209;-68
2021/03/26 08:24:24;;;;;;;21.20;17.75;;;6.80;91.90;14.00;100139.00;;;;5071040;28;20228;-68
2021/03/26 08:26:56;;;;;;;20.30;17.60;;;6.80;91.90;13.90;100143.00;;;;5071211;28;20707;-68
2021/03/26 08:29:33;;;;;;;24.42;18.67;;;6.80;91.90;14.00;100148.00;;;;5020632;28;20190;-68
2021/03/26 08:32:45;;;;;;;20.65;16.70;;;6.80;91.90;13.90;100153.00;;;;5033234;28;20240;-68
2021/03/26 08:35:28;;;;;;;21.67;17.10;;;6.80;91.90;14.20;100152.00;;;;5049540;28;20210;-68
2021/03/26 08:38:47;;;;;;;19.90;17.23;;;6.90;92.00;14.10;100149.00;;;;5034093;28;20579;-68
2021/03/26 08:41:26;;;;;;;21.65;17.00;;;6.90;91.90;14.00;100143.00;;;;5038835;28;20209;-68
2021/03/26 08:43:54;;;;;;;20.92;17.17;;;6.90;92.00;14.10;100145.00;;;;5033911;28;20212;-68
2021/03/26 08:46:40;;;;;;;18.20;16.25;;;6.90;92.00;14.10;100154.00;;;;5032007;28;20217;-68
2021/03/26 08:49:46;;;;;;;22.40;17.58;;;6.90;92.00;14.30;100151.00;;;;5049672;28;20248;-68
2021/03/26 08:52:39;;;;;;;19.67;17.17;;;6.90;92.00;14.10;100149.00;;;;5049643;28;20241;-68
2021/03/26 08:55:51;;;;;;;21.17;17.00;;;6.90;92.00;14.20;100153.00;;;;5049711;28;20231;-68
2021/03/26 08:58:45;;;;;;;22.58;17.10;;;6.90;92.00;14.20;100148.00;;;;5036753;28;20198;-68
2021/03/26 09:01:34;;;;;;;19.30;15.82;;;6.90;92.00;14.20;100148.00;;;;5049894;28;20202;-68
2021/03/26 09:04:36;;;;;;;20.92;16.50;;;6.90;92.00;14.30;100145.00;;;;5050721;28;20182;-68
2021/03/26 09:07:26;;;;;;;20.17;16.23;;;6.90;92.00;14.20;100146.00;;;;5033665;28;20244;-68
2021/03/26 09:10:17;;;;;;;20.17;16.33;;;6.90;92.00;14.20;100150.00;;;;5049535;28;20183;-68
2021/03/26 09:12:57;;;;;;;18.10;15.20;;;6.90;92.00;14.20;100158.00;;;;5049216;28;20179;-68
2021/03/26 09:15:37;;;;;;;20.00;16.00;;;6.90;92.00;14.20;100151.00;;;;5050459;28;20240;-68
2021/03/26 09:18:34;;;;;;;19.48;15.27;;;6.90;92.00;14.20;100148.00;;;;5049512;28;20185;-68
2021/03/26 09:21:24;;;;;;;17.55;14.52;;;6.90;92.00;14.30;100147.00;;;;5033593;28;20213;-68
2021/03/26 09:24:27;;;;;;;20.48;15.35;;;6.90;92.00;14.20;100144.00;;;;5049789;28;20265;-68
2021/03/26 09:27:24;;;;;;;19.08;15.90;;;6.90;92.00;14.20;100142.00;;;;5049595;28;20202;-68
2021/03/26 09:30:22;;;;;;;20.48;16.23;;;6.90;92.00;14.30;100142.00;;;;5042209;28;20540;-68
2021/03/26 09:32:57;;;;;;;19.38;15.05;;;6.90;92.00;14.30;100139.00;;;;5048519;28;20304;-68
2021/03/26 09:35:38;;;;;;;19.10;15.70;;;6.90;92.00;14.30;100134.00;;;;5016452;28;20292;-68
2021/03/26 09:38:33;;;;;;;18.38;14.93;;;6.90;92.00;14.20;100137.00;;;;5050670;28;20739;-68
2021/03/26 09:41:32;;;;;;;19.73;15.02;;;6.90;92.00;14.40;100137.00;;;;5020811;28;20240;-68
2021/03/26 09:44:26;;;;;;;18.88;15.23;;;6.90;92.00;14.40;100132.00;;;;5036417;28;20217;-69
2021/03/26 09:46:55;;;;;;;18.55;15.88;;;6.90;92.10;14.30;100121.00;;;;5048713;28;20204;-68
2021/03/26 09:49:50;;;;;;;17.88;15.25;;;7.00;92.10;14.40;100129.00;;;;5048735;28;20174;-69
2021/03/26 09:52:38;;;;;;;22.00;16.92;;;7.00;92.10;14.40;100132.00;;;;5030674;28;20659;-68
2021/03/26 09:55:12;;;;;;;18.98;15.82;;;6.90;92.10;14.40;100129.00;;;;5030434;28;20209;-69
2021/03/26 09:58:05;;;;;;;16.00;13.77;;;7.00;92.10;14.50;100126.00;;;;5046452;28;20209;-68
2021/03/26 10:01:00;;;;;;;20.85;15.95;;;7.00;92.20;14.40;100130.00;;;;5048673;28;20190;-69
2021/03/26 10:04:04;;;;;;;18.85;15.50;;;7.00;92.10;14.40;100138.00;;;;5031816;28;20433;-69
2021/03/26 10:06:56;;;;;;;18.27;14.93;;;7.00;92.20;14.50;100109.00;;;;5036843;28;20264;-69
2021/03/26 10:10:01;;;;;;;16.90;13.80;;;7.00;92.20;14.50;100121.00;;;;5048251;28;20212;-69
2021/03/26 10:12:28;;;;;;;17.70;14.85;;;7.00;92.20;14.40;100122.00;;;;5046796;28;20212;-69
2021/03/26 10:14:53;;;;;;;20.80;16.20;;;7.00;92.20;14.30;100121.00;;;;5048279;28;20210;-69
2021/03/26 10:17:40;;;;;;;16.67;14.50;;;7.00;92.20;14.50;100115.00;;;;5048146;28;20232;-69
2021/03/26 10:20:27;;;;;;;16.60;14.35;;;7.00;92.20;14.50;100104.00;;;;5046407;28;20254;-69
2021/03/26 10:23:03;;;;;;;16.58;13.57;;;7.00;92.20;14.40;100110.00;;;;5015226;28;20212;-69
2021/03/26 10:25:41;;;;;;;19.38;15.70;;;7.00;92.20;14.50;100095.00;;;;5047396;28;20641;-69
2021/03/26 10:28:42;;;;;;;16.83;14.77;;;7.00;92.20;14.50;100106.00;;;;5047405;28;20588;-69
2021/03/26 10:31:15;;;;;;;18.98;14.98;;;7.00;92.20;14.40;100101.00;;;;5020721;28;20221;-69
2021/03/26 10:33:55;;;;;;;18.33;13.75;;;7.00;92.20;14.50;100097.00;;;;5049450;28;20818;-69
2021/03/26 10:36:24;;;;;;;17.52;14.93;;;7.00;92.20;14.40;100089.00;;;;5014418;28;20283;-69
2021/03/26 10:39:16;;;;;;;18.40;14.35;;;7.10;92.30;14.40;100096.00;;;;5047955;28;20178;-70
2021/03/26 10:41:47;;;;;;;18.10;14.48;;;7.10;92.20;14.40;100088.00;;;;5030803;28;20224;-69
2021/03/26 10:45:02;;;;;;;18.90;14.73;;;7.10;92.30;14.40;100079.00;;;;5046777;28;20186;-68
2021/03/26 10:47:39;;;;;;;16.33;13.85;;;7.10;92.30;14.30;100084.00;;;;5048861;28;20213;-68
2021/03/26 10:50:27;;;;;;;16.00;13.63;;;7.10;92.30;14.50;100081.00;;;;5046921;28;20174;-68
2021/03/26 10:53:10;;;;;;;17.02;14.02;;;7.10;92.30;14.50;100069.00;;;;5014731;28;20182;-69
2021/03/26 10:55:57;;;;;;;18.85;14.80;;;7.10;92.30;14.50;100083.00;;;;5030930;28;20217;-69
2021/03/26 10:58:37;;;;;;;17.15;14.18;;;7.10;92.30;14.50;100084.00;;;;5020632;28;20225;-69
2021/03/26 11:01:10;;;;;;;17.75;15.70;;;7.10;92.30;14.40;100061.00;;;;5020561;28;20280;-69
2021/03/26 11:03:48;;;;;;;16.95;14.15;;;7.10;92.30;14.50;100062.00;;;;5019753;28;20178;-69
2021/03/26 11:06:41;;;;;;;16.80;13.38;;;7.10;92.30;14.50;100058.00;;;;5019286;28;20561;-68
2021/03/26 11:09:19;;;;;;;18.20;14.65;;;7.10;92.30;14.50;100058.00;;;;5021113;28;20564;-69
2021/03/26 11:12:02;;;;;;;17.08;13.45;;;7.10;92.70;14.60;100047.00;;;;5052797;28;20209;-69
2021/03/26 11:15:07;;;;;;;15.73;12.00;;;7.10;92.30;14.40;100043.00;;;;5051998;28;20186;-69
2021/03/26 11:18:00;;;;;;;17.10;13.73;;;7.10;92.30;14.50;100048.00;;;;5051180;28;20214;-69
2021/03/26 11:20:41;;;;;;;16.13;13.43;;;7.20;92.40;14.60;100050.00;;;;5033879;28;20706;-69
2021/03/26 11:23:38;;;;;;;14.70;10.80;;;7.20;92.50;14.70;100048.00;;;;5032883;28;20203;-69
2021/03/26 11:26:04;;;;;;;16.63;13.02;;;7.20;92.40;14.70;100040.00;;;;5043567;28;20214;-69
2021/03/26 11:28:36;;;;;;;16.00;13.47;;;7.20;92.40;14.60;100017.00;;;;5051144;28;20200;-69
2021/03/26 11:31:12;;;;;;;18.42;14.27;;;7.20;92.60;14.70;100034.00;;;;5034465;28;20210;-69
2021/03/26 11:33:55;;;;;;;14.02;12.45;;;7.20;92.50;14.80;100031.00;;;;5049577;28;20415;-71
2021/03/26 11:36:47;;;;;;;17.25;13.18;;;7.20;92.50;14.80;100025.00;;;;5050576;28;20216;-70
2021/03/26 11:39:33;;;;;;;16.00;12.63;;;7.20;92.50;14.90;100025.00;;;;5031230;28;20274;-71
2021/03/26 11:42:08;;;;;;;17.38;12.80;;;7.20;92.50;14.90;100037.00;;;;5030789;28;20195;-71
2021/03/26 11:44:39;;;;;;;18.05;13.48;;;7.30;92.50;14.90;100029.00;;;;5032327;28;20676;-71
2021/03/26 11:47:25;;;;;;;16.02;11.98;;;7.30;92.90;14.90;100026.00;;;;5013687;28;20625;-71
2021/03/26 11:50:02;;;;;;;14.80;11.50;;;7.30;92.50;14.90;100021.00;;;;5032355;28;20304;-68